sensor_id;sensor_type;location;lat;lon;timestamp;pressure;altitude;pressure_sealevel;temperature;humidity
70546;BME280;58098;51.680;5.134;2023-02-19T00:02:20;101916.47;;;10.14;100.00
70546;BME280;58098;51.680;5.134;2023-02-19T00:04:45;101924.13;;;10.01;100.00
70546;BME280;58098;51.680;5.134;2023-02-19T00:07:10;101916.50;;;9.98;100.00
70546;BME280;58098;51.680;5.134;2023-02-19T00:09:36;101932.81;;;10.02;100.00
70546;BME280;58098;51.680;5.134;2023-02-19T00:12:01;101924.41;;;9.96;100.00
70546;BME280;58098;51.680;5.134;2023-02-19T00:14:26;101923.09;;;9.89;100.00
70546;BME280;58098;51.680;5.134;2023-02-19T00:16:52;101924.25;;;10.00;100.00
70546;BME280;58098;51.680;5.134;2023-02-19T00:19:19;101932.59;;;9.90;100.00
70546;BME280;58098;51.680;5.134;2023-02-19T00:21:45;101930.53;;;9.95;100.00
70546;BME280;58098;51.680;5.134;2023-02-19T00:24:13;101922.94;;;9.92;100.00
70546;BME280;58098;51.680;5.134;2023-02-19T00:26:39;101910.63;;;9.80;100.00
70546;BME280;58098;51.680;5.134;2023-02-19T00:29:05;101940.22;;;9.93;100.00
70546;BME280;58098;51.680;5.134;2023-02-19T00:31:33;101925.97;;;9.85;100.00
70546;BME280;58098;51.680;5.134;2023-02-19T00:34:04;101945.53;;;9.92;100.00
70546;BME280;58098;51.680;5.134;2023-02-19T00:36:31;101902.41;;;9.72;100.00
70546;BME280;58098;51.680;5.134;2023-02-19T00:38:57;101929.22;;;9.88;100.00
70546;BME280;58098;51.680;5.134;2023-02-19T00:41:23;101938.75;;;9.89;100.00
70546;BME280;58098;51.680;5.134;2023-02-19T00:43:57;101917.88;;;9.75;100.00
70546;BME280;58098;51.680;5.134;2023-02-19T00:48:51;101938.34;;;9.81;100.00
70546;BME280;58098;51.680;5.134;2023-02-19T00:51:17;101927.44;;;9.75;100.00
70546;BME280;58098;51.680;5.134;2023-02-19T00:53:43;101924.16;;;9.71;100.00
70546;BME280;58098;51.680;5.134;2023-02-19T00:56:09;101944.19;;;9.71;100.00
70546;BME280;58098;51.680;5.134;2023-02-19T00:58:34;101950.91;;;9.75;100.00
70546;BME280;58098;51.680;5.134;2023-02-19T01:01:00;101943.19;;;9.73;100.00
70546;BME280;58098;51.680;5.134;2023-02-19T01:03:26;101958.81;;;9.73;100.00
70546;BME280;58098;51.680;5.134;2023-02-19T01:05:52;101943.19;;;9.73;100.00
70546;BME280;58098;51.680;5.134;2023-02-19T01:08:17;101949.03;;;9.77;100.00
70546;BME280;58098;51.680;5.134;2023-02-19T01:10:43;101944.84;;;9.74;100.00
70546;BME280;58098;51.680;5.134;2023-02-19T01:13:08;101941.31;;;9.75;100.00
70546;BME280;58098;51.680;5.134;2023-02-19T01:15:34;101938.97;;;9.71;100.00
70546;BME280;58098;51.680;5.134;2023-02-19T01:18:00;101951.91;;;9.72;100.00
70546;BME280;58098;51.680;5.134;2023-02-19T01:20:25;101956.72;;;9.64;100.00
70546;BME280;58098;51.680;5.134;2023-02-19T01:22:51;101961.00;;;9.65;100.00
70546;BME280;58098;51.680;5.134;2023-02-19T01:25:17;101955.31;;;9.59;100.00
70546;BME280;58098;51.680;5.134;2023-02-19T01:27:42;101971.44;;;9.65;100.00
70546;BME280;58098;51.680;5.134;2023-02-19T01:30:08;101959.06;;;9.69;100.00
70546;BME280;58098;51.680;5.134;2023-02-19T01:32:34;101959.91;;;9.69;100.00
70546;BME280;58098;51.680;5.134;2023-02-19T01:34:59;101971.28;;;9.68;100.00
70546;BME280;58098;51.680;5.134;2023-02-19T01:37:24;101966.06;;;9.68;100.00
70546;BME280;58098;51.680;5.134;2023-02-19T01:39:50;101968.25;;;9.60;100.00
70546;BME280;58098;51.680;5.134;2023-02-19T01:42:16;101962.34;;;9.72;100.00
70546;BME280;58098;51.680;5.134;2023-02-19T01:47:06;101969.38;;;9.56;100.00
70546;BME280;58098;51.680;5.134;2023-02-19T01:49:36;101977.41;;;9.67;100.00
70546;BME280;58098;51.680;5.134;2023-02-19T01:52:28;101970.69;;;9.63;100.00
70546;BME280;58098;51.680;5.134;2023-02-19T01:55:00;101965.53;;;9.62;100.00
70546;BME280;58098;51.680;5.134;2023-02-19T01:57:32;101963.88;;;9.61;100.00
70546;BME280;58098;51.680;5.134;2023-02-19T02:00:03;101956.81;;;9.47;100.00
70546;BME280;58098;51.680;5.134;2023-02-19T02:02:30;101962.47;;;9.55;100.00
70546;BME280;58098;51.680;5.134;2023-02-19T02:04:57;101964.69;;;9.61;100.00
70546;BME280;58098;51.680;5.134;2023-02-19T02:07:25;101955.16;;;9.46;100.00
70546;BME280;58098;51.680;5.134;2023-02-19T02:10:09;101960.19;;;9.49;100.00
70546;BME280;58098;51.680;5.134;2023-02-19T02:12:47;101970.59;;;9.49;100.00
70546;BME280;58098;51.680;5.134;2023-02-19T02:15:14;101967.19;;;9.49;100.00
70546;BME280;58098;51.680;5.134;2023-02-19T02:18:05;101964.75;;;9.46;100.00
70546;BME280;58098;51.680;5.134;2023-02-19T02:23:37;101975.06;;;9.47;100.00
70546;BME280;58098;51.680;5.134;2023-02-19T02:26:18;101952.38;;;9.49;100.00
70546;BME280;58098;51.680;5.134;2023-02-19T02:29:11;101968.09;;;9.48;100.00
70546;BME280;58098;51.680;5.134;2023-02-19T02:31:48;101953.16;;;9.36;100.00
70546;BME280;58098;51.680;5.134;2023-02-19T02:34:26;101956.66;;;9.35;100.00
70546;BME280;58098;51.680;5.134;2023-02-19T02:36:55;101968.69;;;9.37;100.00
70546;BME280;58098;51.680;5.134;2023-02-19T02:39:23;101973.91;;;9.37;100.00
70546;BME280;58098;51.680;5.134;2023-02-19T02:41:55;101973.16;;;9.35;100.00
70546;BME280;58098;51.680;5.134;2023-02-19T02:44:40;101975.50;;;9.40;100.00
70546;BME280;58098;51.680;5.134;2023-02-19T02:47:06;101968.78;;;9.36;100.00
70546;BME280;58098;51.680;5.134;2023-02-19T02:49:54;101972.66;;;9.28;100.00
70546;BME280;58098;51.680;5.134;2023-02-19T02:52:34;101980.06;;;9.36;100.00
70546;BME280;58098;51.680;5.134;2023-02-19T02:55:21;101977.88;;;9.44;100.00
70546;BME280;58098;51.680;5.134;2023-02-19T02:57:47;101971.81;;;9.44;100.00
70546;BME280;58098;51.680;5.134;2023-02-19T03:00:13;101964.59;;;9.33;100.00
70546;BME280;58098;51.680;5.134;2023-02-19T03:02:41;101967.03;;;9.36;100.00
70546;BME280;58098;51.680;5.134;2023-02-19T03:05:15;101980.91;;;9.37;100.00
70546;BME280;58098;51.680;5.134;2023-02-19T03:08:05;101994.31;;;9.45;100.00
70546;BME280;58098;51.680;5.134;2023-02-19T03:10:43;101992.28;;;9.50;100.00
70546;BME280;58098;51.680;5.134;2023-02-19T03:13:14;102005.59;;;9.45;100.00
70546;BME280;58098;51.680;5.134;2023-02-19T03:16:07;102005.06;;;9.54;100.00
70546;BME280;58098;51.680;5.134;2023-02-19T03:18:53;101971.81;;;9.44;100.00
70546;BME280;58098;51.680;5.134;2023-02-19T03:21:40;101980.63;;;9.41;100.00
70546;BME280;58098;51.680;5.134;2023-02-19T03:24:10;102000.78;;;9.53;100.00
70546;BME280;58098;51.680;5.134;2023-02-19T03:26:57;101996.50;;;9.52;100.00
70546;BME280;58098;51.680;5.134;2023-02-19T03:29:27;102000.53;;;9.58;100.00
70546;BME280;58098;51.680;5.134;2023-02-19T03:31:56;102006.06;;;9.67;100.00
70546;BME280;58098;51.680;5.134;2023-02-19T03:34:29;101994.47;;;9.57;100.00
70546;BME280;58098;51.680;5.134;2023-02-19T03:39:42;101991.34;;;9.66;100.00
70546;BME280;58098;51.680;5.134;2023-02-19T03:42:26;102003.94;;;9.74;100.00
70546;BME280;58098;51.680;5.134;2023-02-19T03:47:32;102010.94;;;9.73;100.00
70546;BME280;58098;51.680;5.134;2023-02-19T03:50:18;102019.31;;;9.78;100.00
70546;BME280;58098;51.680;5.134;2023-02-19T03:58:15;102023.28;;;9.70;100.00
70546;BME280;58098;51.680;5.134;2023-02-19T04:00:47;102026.06;;;9.67;100.00
70546;BME280;58098;51.680;5.134;2023-02-19T04:03:56;102026.75;;;9.55;100.00
70546;BME280;58098;51.680;5.134;2023-02-19T04:06:18;102049.19;;;9.57;100.00
70546;BME280;58098;51.680;5.134;2023-02-19T04:08:48;102030.78;;;9.45;100.00
70546;BME280;58098;51.680;5.134;2023-02-19T04:11:17;102029.50;;;9.52;100.00
70546;BME280;58098;51.680;5.134;2023-02-19T04:13:45;102051.22;;;9.52;100.00
70546;BME280;58098;51.680;5.134;2023-02-19T04:16:18;102053.06;;;9.50;100.00
70546;BME280;58098;51.680;5.134;2023-02-19T04:18:47;102055.84;;;9.63;100.00
70546;BME280;58098;51.680;5.134;2023-02-19T04:21:14;102052.16;;;9.51;100.00
70546;BME280;58098;51.680;5.134;2023-02-19T04:23:42;102064.91;;;9.56;100.00
70546;BME280;58098;51.680;5.134;2023-02-19T04:26:10;102060.03;;;9.50;100.00
70546;BME280;58098;51.680;5.134;2023-02-19T04:28:37;102050.97;;;9.41;100.00
70546;BME280;58098;51.680;5.134;2023-02-19T04:31:02;102066.84;;;9.37;100.00
70546;BME280;58098;51.680;5.134;2023-02-19T04:33:27;102059.34;;;9.30;100.00
70546;BME280;58098;51.680;5.134;2023-02-19T04:35:53;102082.19;;;9.25;100.00
70546;BME280;58098;51.680;5.134;2023-02-19T04:38:18;102080.59;;;9.23;100.00
70546;BME280;58098;51.680;5.134;2023-02-19T04:40:43;102079.53;;;9.27;100.00
70546;BME280;58098;51.680;5.134;2023-02-19T04:43:09;102052.28;;;9.17;100.00
70546;BME280;58098;51.680;5.134;2023-02-19T04:45:36;102092.63;;;9.25;100.00
70546;BME280;58098;51.680;5.134;2023-02-19T04:48:02;102098.69;;;9.26;100.00
70546;BME280;58098;51.680;5.134;2023-02-19T04:50:27;102105.22;;;9.33;100.00
70546;BME280;58098;51.680;5.134;2023-02-19T04:52:53;102109.19;;;9.24;100.00
70546;BME280;58098;51.680;5.134;2023-02-19T04:55:18;102111.69;;;9.26;100.00
70546;BME280;58098;51.680;5.134;2023-02-19T04:57:43;102125.72;;;9.23;100.00
70546;BME280;58098;51.680;5.134;2023-02-19T05:00:09;102119.34;;;9.29;100.00
70546;BME280;58098;51.680;5.134;2023-02-19T05:02:34;102113.44;;;9.10;100.00
70546;BME280;58098;51.680;5.134;2023-02-19T05:05:00;102107.63;;;9.05;100.00
70546;BME280;58098;51.680;5.134;2023-02-19T05:07:25;102141.03;;;9.29;100.00
70546;BME280;58098;51.680;5.134;2023-02-19T05:09:50;102129.38;;;9.04;100.00
70546;BME280;58098;51.680;5.134;2023-02-19T05:12:16;102137.16;;;9.04;100.00
70546;BME280;58098;51.680;5.134;2023-02-19T05:14:41;102147.50;;;9.05;100.00
70546;BME280;58098;51.680;5.134;2023-02-19T05:17:06;102141.78;;;8.82;100.00
70546;BME280;58098;51.680;5.134;2023-02-19T05:19:32;102166.75;;;8.86;100.00
70546;BME280;58098;51.680;5.134;2023-02-19T05:21:57;102164.59;;;8.77;100.00
70546;BME280;58098;51.680;5.134;2023-02-19T05:24:22;102172.41;;;8.77;100.00
70546;BME280;58098;51.680;5.134;2023-02-19T05:26:49;102160.16;;;8.61;100.00
70546;BME280;58098;51.680;5.134;2023-02-19T05:29:14;102173.88;;;8.65;100.00
70546;BME280;58098;51.680;5.134;2023-02-19T05:31:40;102176.38;;;8.67;100.00
70546;BME280;58098;51.680;5.134;2023-02-19T05:34:05;102160.56;;;8.54;100.00
70546;BME280;58098;51.680;5.134;2023-02-19T05:36:31;102160.31;;;8.58;100.00
70546;BME280;58098;51.680;5.134;2023-02-19T05:38:57;102171.63;;;8.57;100.00
70546;BME280;58098;51.680;5.134;2023-02-19T05:41:27;102173.63;;;8.52;100.00
70546;BME280;58098;51.680;5.134;2023-02-19T05:43:53;102160.16;;;8.44;100.00
70546;BME280;58098;51.680;5.134;2023-02-19T05:46:21;102177.91;;;8.53;100.00
70546;BME280;58098;51.680;5.134;2023-02-19T05:48:48;102184.72;;;8.56;100.00
70546;BME280;58098;51.680;5.134;2023-02-19T05:51:16;102181.81;;;8.62;100.00
70546;BME280;58098;51.680;5.134;2023-02-19T05:53:43;102166.19;;;8.45;100.00
70546;BME280;58098;51.680;5.134;2023-02-19T05:56:37;102176.78;;;8.59;100.00
70546;BME280;58098;51.680;5.134;2023-02-19T05:59:14;102170.72;;;8.41;100.00
70546;BME280;58098;51.680;5.134;2023-02-19T06:01:41;102178.44;;;8.43;100.00
70546;BME280;58098;51.680;5.134;2023-02-19T06:04:07;102181.03;;;8.43;100.00
70546;BME280;58098;51.680;5.134;2023-02-19T06:06:33;102164.03;;;8.36;100.00
70546;BME280;58098;51.680;5.134;2023-02-19T06:08:59;102153.28;;;8.43;100.00
70546;BME280;58098;51.680;5.134;2023-02-19T06:11:24;102183.25;;;8.50;100.00
70546;BME280;58098;51.680;5.134;2023-02-19T06:13:50;102177.91;;;8.53;100.00
70546;BME280;58098;51.680;5.134;2023-02-19T06:16:15;102187.09;;;8.60;100.00
70546;BME280;58098;51.680;5.134;2023-02-19T06:18:42;102190.31;;;8.48;100.00
70546;BME280;58098;51.680;5.134;2023-02-19T06:21:09;102183.56;;;8.44;100.00
70546;BME280;58098;51.680;5.134;2023-02-19T06:23:35;102191.78;;;8.54;100.00
70546;BME280;58098;51.680;5.134;2023-02-19T06:26:21;102203.00;;;8.54;100.00
70546;BME280;58098;51.680;5.134;2023-02-19T06:28:48;102196.28;;;8.50;100.00
70546;BME280;58098;51.680;5.134;2023-02-19T06:31:15;102222.41;;;8.47;100.00
70546;BME280;58098;51.680;5.134;2023-02-19T06:33:40;102206.81;;;8.47;100.00
70546;BME280;58098;51.680;5.134;2023-02-19T06:36:09;102212.19;;;8.44;100.00
70546;BME280;58098;51.680;5.134;2023-02-19T06:38:35;102221.75;;;8.44;100.00
70546;BME280;58098;51.680;5.134;2023-02-19T06:41:02;102237.66;;;8.55;100.00
70546;BME280;58098;51.680;5.134;2023-02-19T06:43:28;102225.97;;;8.46;100.00
70546;BME280;58098;51.680;5.134;2023-02-19T06:45:57;102240.81;;;8.44;100.00
70546;BME280;58098;51.680;5.134;2023-02-19T06:48:23;102242.47;;;8.45;100.00
70546;BME280;58098;51.680;5.134;2023-02-19T06:50:52;102233.19;;;8.40;100.00
70546;BME280;58098;51.680;5.134;2023-02-19T06:53:18;102240.84;;;8.43;100.00
70546;BME280;58098;51.680;5.134;2023-02-19T06:55:43;102226.09;;;8.25;100.00
70546;BME280;58098;51.680;5.134;2023-02-19T06:58:08;102249.31;;;8.29;100.00
70546;BME280;58098;51.680;5.134;2023-02-19T07:00:34;102228.66;;;8.26;100.00
70546;BME280;58098;51.680;5.134;2023-02-19T07:02:59;102238.91;;;8.29;100.00
70546;BME280;58098;51.680;5.134;2023-02-19T07:05:25;102233.31;;;8.18;100.00
70546;BME280;58098;51.680;5.134;2023-02-19T07:07:50;102232.97;;;8.26;100.00
70546;BME280;58098;51.680;5.134;2023-02-19T07:10:15;102238.91;;;8.29;100.00
70546;BME280;58098;51.680;5.134;2023-02-19T07:12:41;102267.31;;;8.34;100.00
70546;BME280;58098;51.680;5.134;2023-02-19T07:15:06;102276.31;;;8.27;100.00
70546;BME280;58098;51.680;5.134;2023-02-19T07:17:33;102258.28;;;8.22;100.00
70546;BME280;58098;51.680;5.134;2023-02-19T07:19:59;102282.34;;;8.27;100.00
70546;BME280;58098;51.680;5.134;2023-02-19T07:22:25;102280.56;;;8.28;100.00
70546;BME280;58098;51.680;5.134;2023-02-19T07:24:50;102277.53;;;8.18;100.00
70546;BME280;58098;51.680;5.134;2023-02-19T07:27:16;102295.81;;;8.35;100.00
70546;BME280;58098;51.680;5.134;2023-02-19T07:29:41;102299.50;;;8.31;100.00
70546;BME280;58098;51.680;5.134;2023-02-19T07:32:06;102313.41;;;8.30;100.00
70546;BME280;58098;51.680;5.134;2023-02-19T07:34:32;102301.56;;;8.23;100.00
70546;BME280;58098;51.680;5.134;2023-02-19T07:36:57;102303.16;;;8.27;100.00
70546;BME280;58098;51.680;5.134;2023-02-19T07:39:22;102314.47;;;8.26;100.00
70546;BME280;58098;51.680;5.134;2023-02-19T07:41:47;102324.72;;;8.29;100.00
70546;BME280;58098;51.680;5.134;2023-02-19T07:44:13;102321.47;;;8.24;100.00
70546;BME280;58098;51.680;5.134;2023-02-19T07:46:41;102315.31;;;8.25;100.00
70546;BME280;58098;51.680;5.134;2023-02-19T07:49:06;102330.56;;;8.34;100.00
70546;BME280;58098;51.680;5.134;2023-02-19T07:51:32;102322.97;;;8.30;100.00
70546;BME280;58098;51.680;5.134;2023-02-19T07:53:57;102341.94;;;8.32;100.00
70546;BME280;58098;51.680;5.134;2023-02-19T07:56:22;102354.09;;;8.31;100.00
70546;BME280;58098;51.680;5.134;2023-02-19T07:58:48;102348.78;;;8.34;100.00
70546;BME280;58098;51.680;5.134;2023-02-19T08:01:16;102356.41;;;8.37;100.00
70546;BME280;58098;51.680;5.134;2023-02-19T08:03:42;102365.66;;;8.44;100.00
70546;BME280;58098;51.680;5.134;2023-02-19T08:06:08;102369.06;;;8.45;100.00
70546;BME280;58098;51.680;5.134;2023-02-19T08:08:35;102368.09;;;8.47;100.00
70546;BME280;58098;51.680;5.134;2023-02-19T08:11:02;102361.22;;;8.46;100.00
70546;BME280;58098;51.680;5.134;2023-02-19T08:13:50;102370.78;;;8.46;100.00
70546;BME280;58098;51.680;5.134;2023-02-19T08:16:17;102360.91;;;8.34;100.00
70546;BME280;58098;51.680;5.134;2023-02-19T08:18:45;102365.78;;;8.41;100.00
70546;BME280;58098;51.680;5.134;2023-02-19T08:21:10;102378.19;;;8.35;100.00
70546;BME280;58098;51.680;5.134;2023-02-19T08:23:36;102385.53;;;8.45;100.00
70546;BME280;58098;51.680;5.134;2023-02-19T08:26:02;102380.19;;;8.48;100.00
70546;BME280;58098;51.680;5.134;2023-02-19T08:28:28;102382.66;;;8.51;100.00
70546;BME280;58098;51.680;5.134;2023-02-19T08:30:59;102382.16;;;8.62;100.00
70546;BME280;58098;51.680;5.134;2023-02-19T08:33:25;102378.78;;;8.60;100.00
70546;BME280;58098;51.680;5.134;2023-02-19T08:35:50;102378.00;;;8.58;100.00
70546;BME280;58098;51.680;5.134;2023-02-19T08:38:16;102383.78;;;8.64;100.00
70546;BME280;58098;51.680;5.134;2023-02-19T08:40:42;102374.75;;;8.72;100.00
70546;BME280;58098;51.680;5.134;2023-02-19T08:43:12;102376.38;;;8.74;100.00
70546;BME280;58098;51.680;5.134;2023-02-19T08:45:41;102376.53;;;8.71;100.00
70546;BME280;58098;51.680;5.134;2023-02-19T08:48:07;102379.75;;;8.76;100.00
70546;BME280;58098;51.680;5.134;2023-02-19T08:50:33;102382.97;;;8.81;100.00
70546;BME280;58098;51.680;5.134;2023-02-19T08:52:59;102396.56;;;8.88;100.00
70546;BME280;58098;51.680;5.134;2023-02-19T08:55:25;102408.66;;;8.89;100.00
70546;BME280;58098;51.680;5.134;2023-02-19T08:57:50;102406.28;;;8.84;100.00
70546;BME280;58098;51.680;5.134;2023-02-19T09:00:16;102411.34;;;8.87;100.00
70546;BME280;58098;51.680;5.134;2023-02-19T09:02:41;102401.28;;;8.80;100.00
70546;BME280;58098;51.680;5.134;2023-02-19T09:05:07;102417.03;;;8.95;100.00
70546;BME280;58098;51.680;5.134;2023-02-19T09:07:32;102410.56;;;8.85;100.00
70546;BME280;58098;51.680;5.134;2023-02-19T09:10:00;102415.44;;;8.93;100.00
70546;BME280;58098;51.680;5.134;2023-02-19T09:12:26;102412.03;;;8.91;100.00
70546;BME280;58098;51.680;5.134;2023-02-19T09:14:57;102377.09;;;8.78;100.00
70546;BME280;58098;51.680;5.134;2023-02-19T09:17:22;102413.66;;;8.93;100.00
70546;BME280;58098;51.680;5.134;2023-02-19T09:19:47;102412.28;;;9.03;100.00
70546;BME280;58098;51.680;5.134;2023-02-19T09:22:13;102410.28;;;9.10;100.00
70546;BME280;58098;51.680;5.134;2023-02-19T09:24:38;102396.19;;;9.14;100.00
70546;BME280;58098;51.680;5.134;2023-02-19T09:27:03;102419.53;;;9.15;100.00
70546;BME280;58098;51.680;5.134;2023-02-19T09:29:29;102411.34;;;9.23;100.00
70546;BME280;58098;51.680;5.134;2023-02-19T09:31:56;102430.84;;;9.33;100.00
70546;BME280;58098;51.680;5.134;2023-02-19T09:34:22;102431.59;;;9.35;100.00
70546;BME280;58098;51.680;5.134;2023-02-19T09:36:48;102425.84;;;9.28;100.00
70546;BME280;58098;51.680;5.134;2023-02-19T09:39:14;102384.91;;;9.13;100.00
70546;BME280;58098;51.680;5.134;2023-02-19T09:41:57;102418.97;;;9.45;100.00
70546;BME280;58098;51.680;5.134;2023-02-19T09:44:34;102432.69;;;9.48;100.00
70546;BME280;58098;51.680;5.134;2023-02-19T09:47:02;102428.72;;;9.41;100.00
70546;BME280;58098;51.680;5.134;2023-02-19T09:49:35;102427.00;;;9.40;100.00
70546;BME280;58098;51.680;5.134;2023-02-19T09:52:31;102451.41;;;9.56;100.00
70546;BME280;58098;51.680;5.134;2023-02-19T09:55:12;102449.56;;;9.58;100.00
70546;BME280;58098;51.680;5.134;2023-02-19T09:57:38;102451.25;;;9.59;100.00
70546;BME280;58098;51.680;5.134;2023-02-19T10:00:06;102469.69;;;9.73;100.00
70546;BME280;58098;51.680;5.134;2023-02-19T10:02:39;102478.66;;;9.85;100.00
70546;BME280;58098;51.680;5.134;2023-02-19T10:05:11;102451.13;;;9.79;100.00
70546;BME280;58098;51.680;5.134;2023-02-19T10:07:40;102465.25;;;9.92;100.00
70546;BME280;58098;51.680;5.134;2023-02-19T10:12:51;102485.13;;;10.12;100.00
70546;BME280;58098;51.680;5.134;2023-02-19T10:15:25;102491.88;;;10.16;100.00
70546;BME280;58098;51.680;5.134;2023-02-19T10:17:53;102493.72;;;10.14;100.00
70546;BME280;58098;51.680;5.134;2023-02-19T10:20:21;102495.47;;;10.14;100.00
70546;BME280;58098;51.680;5.134;2023-02-19T10:22:59;102482.97;;;10.20;100.00
70546;BME280;58098;51.680;5.134;2023-02-19T10:25:26;102500.78;;;10.12;100.00
70546;BME280;58098;51.680;5.134;2023-02-19T10:27:52;102521.41;;;10.17;100.00
70546;BME280;58098;51.680;5.134;2023-02-19T10:30:28;102527.03;;;10.08;100.00
70546;BME280;58098;51.680;5.134;2023-02-19T10:33:08;102533.84;;;10.12;100.00
70546;BME280;58098;51.680;5.134;2023-02-19T10:35:37;102539.16;;;10.09;100.00
70546;BME280;58098;51.680;5.134;2023-02-19T10:38:03;102523.84;;;10.03;100.00
70546;BME280;58098;51.680;5.134;2023-02-19T10:40:31;102531.50;;;10.06;100.00
70546;BME280;58098;51.680;5.134;2023-02-19T10:43:00;102525.59;;;10.02;100.00
70546;BME280;58098;51.680;5.134;2023-02-19T10:45:39;102539.31;;;10.06;100.00
70546;BME280;58098;51.680;5.134;2023-02-19T10:48:23;102546.09;;;10.10;100.00
70546;BME280;58098;51.680;5.134;2023-02-19T10:50:51;102538.75;;;10.18;100.00
70546;BME280;58098;51.680;5.134;2023-02-19T10:53:22;102523.63;;;10.07;100.00
70546;BME280;58098;51.680;5.134;2023-02-19T10:56:06;102527.25;;;10.22;100.00
70546;BME280;58098;51.680;5.134;2023-02-19T10:58:32;102541.97;;;10.23;100.00
70546;BME280;58098;51.680;5.134;2023-02-19T11:01:22;102546.81;;;10.30;100.00
70546;BME280;58098;51.680;5.134;2023-02-19T11:03:52;102545.03;;;10.31;100.00
70546;BME280;58098;51.680;5.134;2023-02-19T11:06:36;102546.28;;;10.41;100.00
70546;BME280;58098;51.680;5.134;2023-02-19T11:09:02;102553.63;;;10.50;100.00
70546;BME280;58098;51.680;5.134;2023-02-19T11:11:33;102551.59;;;10.72;100.00
70546;BME280;58098;51.680;5.134;2023-02-19T11:14:03;102527.66;;;10.64;100.00
70546;BME280;58098;51.680;5.134;2023-02-19T11:16:41;102535.81;;;10.58;100.00
70546;BME280;58098;51.680;5.134;2023-02-19T11:19:21;102544.41;;;10.43;100.00
70546;BME280;58098;51.680;5.134;2023-02-19T11:21:48;102525.63;;;10.36;100.00
70546;BME280;58098;51.680;5.134;2023-02-19T11:24:34;102539.34;;;10.40;100.00
70546;BME280;58098;51.680;5.134;2023-02-19T11:27:04;102539.34;;;10.40;100.00
70546;BME280;58098;51.680;5.134;2023-02-19T11:29:30;102549.78;;;10.40;100.00
70546;BME280;58098;51.680;5.134;2023-02-19T11:34:46;102538.28;;;10.10;100.00
70546;BME280;58098;51.680;5.134;2023-02-19T11:37:14;102548.50;;;9.95;100.00
70546;BME280;58098;51.680;5.134;2023-02-19T11:39:44;102550.66;;;9.87;100.00
70546;BME280;58098;51.680;5.134;2023-02-19T11:42:44;102539.00;;;9.77;100.00
70546;BME280;58098;51.680;5.134;2023-02-19T11:45:53;102551.78;;;9.82;100.00
70546;BME280;58098;51.680;5.134;2023-02-19T11:51:11;102554.91;;;10.07;100.00
70546;BME280;58098;51.680;5.134;2023-02-19T11:53:46;102544.66;;;10.21;100.00
70546;BME280;58098;51.680;5.134;2023-02-19T11:56:18;102527.00;;;10.26;100.00
70546;BME280;58098;51.680;5.134;2023-02-19T11:59:00;102550.53;;;10.42;100.00
70546;BME280;58098;51.680;5.134;2023-02-19T12:10:43;102517.56;;;10.24;100.00
70546;BME280;58098;51.680;5.134;2023-02-19T12:16:36;102528.28;;;10.35;100.00
70546;BME280;58098;51.680;5.134;2023-02-19T12:19:39;102532.75;;;10.33;100.00
70546;BME280;58098;51.680;5.134;2023-02-19T12:24:58;102532.00;;;10.14;100.00
70546;BME280;58098;51.680;5.134;2023-02-19T12:36:02;102566.13;;;9.90;100.00
70546;BME280;58098;51.680;5.134;2023-02-19T12:38:43;102536.38;;;9.77;100.00
70546;BME280;58098;51.680;5.134;2023-02-19T12:43:52;102575.75;;;9.71;100.00
70546;BME280;58098;51.680;5.134;2023-02-19T12:46:23;102570.22;;;9.60;100.00
70546;BME280;58098;51.680;5.134;2023-02-19T12:49:14;102567.97;;;9.53;100.00
70546;BME280;58098;51.680;5.134;2023-02-19T12:51:48;102562.63;;;9.56;100.00
70546;BME280;58098;51.680;5.134;2023-02-19T12:54:39;102561.72;;;9.38;100.00
70546;BME280;58098;51.680;5.134;2023-02-19T12:57:21;102564.88;;;9.26;100.00
70546;BME280;58098;51.680;5.134;2023-02-19T12:59:59;102570.81;;;9.29;100.00
70546;BME280;58098;51.680;5.134;2023-02-19T13:02:40;102572.56;;;9.29;100.00
70546;BME280;58098;51.680;5.134;2023-02-19T13:07:42;102601.13;;;9.30;100.00
70546;BME280;58098;51.680;5.134;2023-02-19T13:10:38;102603.06;;;9.27;100.00
70546;BME280;58098;51.680;5.134;2023-02-19T13:13:11;102600.78;;;9.19;100.00
70546;BME280;58098;51.680;5.134;2023-02-19T13:15:42;102602.97;;;9.10;100.00
70546;BME280;58098;51.680;5.134;2023-02-19T13:18:19;102590.84;;;9.09;100.00
70546;BME280;58098;51.680;5.134;2023-02-19T13:20:47;102596.34;;;9.03;100.00
70546;BME280;58098;51.680;5.134;2023-02-19T13:23:21;102602.88;;;9.11;100.00
70546;BME280;58098;51.680;5.134;2023-02-19T13:26:42;102610.81;;;9.08;100.00
70546;BME280;58098;51.680;5.134;2023-02-19T13:37:20;102619.81;;;8.81;100.00
70546;BME280;58098;51.680;5.134;2023-02-19T13:39:47;102628.03;;;8.72;100.00
70546;BME280;58098;51.680;5.134;2023-02-19T13:44:51;102626.03;;;8.58;100.00
70546;BME280;58098;51.680;5.134;2023-02-19T13:47:46;102645.47;;;8.70;100.00
70546;BME280;58098;51.680;5.134;2023-02-19T13:50:36;102628.44;;;8.63;100.00
70546;BME280;58098;51.680;5.134;2023-02-19T14:31:35;102671.44;;;8.51;100.00
70546;BME280;58098;51.680;5.134;2023-02-19T14:33:36;102663.22;;;8.60;100.00
70546;BME280;58098;51.680;5.134;2023-02-19T14:36:13;102642.50;;;8.59;100.00
70546;BME280;58098;51.680;5.134;2023-02-19T14:38:45;102655.03;;;8.70;100.00
70546;BME280;58098;51.680;5.134;2023-02-19T14:41:14;102645.69;;;8.66;100.00
70546;BME280;58098;51.680;5.134;2023-02-19T14:43:40;102648.28;;;8.66;100.00
70546;BME280;58098;51.680;5.134;2023-02-19T14:46:30;102638.56;;;8.69;100.00
70546;BME280;58098;51.680;5.134;2023-02-19T14:49:04;102645.03;;;8.60;100.00
70546;BME280;58098;51.680;5.134;2023-02-19T14:51:35;102642.50;;;8.59;100.00